Whitehall, Montana
Current Conditions -  °F | °C
As of 10:53 AM on Thursday 27 Nov 2014 (Local Time) from KBTM Reporting Station
Broken Clouds Broken Clouds  
Wind Chill: 38°   Ceiling: 8000
Heat Index: 44°   Visibility: 10mi
Dew Point: 30°   Wind: 12mph
Humidity: 58%   Direction: 210°SSW
Pressure: 30.06"   Gusts: NA
Location:  45.87°N, 112.1°W
Report Text: KBTM 271753Z AUTO 21010KT 10SM FEW050 BKN080 07/M01 A3006 RMK AO2 SLP172 T00671011 10078 20061 53006
Loading
Personal Weather Stations






























Interactive Weather Map New forecast layout! Learn more

10-Day Weather Forecast

Advertisements
Track Severe Weather on mobile